Flight Track Log - Related Links

Times and Time Zones

All times are in EDT time to prevent confusion due to time zone crossing. See the AAL1870 flight status page for this flight to view local times or setup timezone preferences in your user account.

Time Position Orientation Groundspeed Altitude Reporting Facility
EDT Latitude Longitude Course Direction KTS MPH feet Rate Location/Type
Tue 01:55:00 AM 41.6928 -90.2720 62° Northeast  Level Estimated
Tue 01:56:00 AM 41.7141 -90.1112 80° East  Level Estimated
Tue 01:57:00 AM 41.7351 -89.9503 80° East  Level Estimated
Tue 01:58:00 AM 41.7559 -89.7892 80° East  Level Estimated
Tue 01:59:00 AM 41.7765 -89.6281 80° East  Level Estimated
Tue 02:00:00 AM 41.7969 -89.4668 80° East  Level Estimated
Tue 02:01:00 AM 41.8170 -89.3055 80° East  Level Estimated
Tue 02:02:00 AM 41.8369 -89.1440 81° East  Level Estimated
Tue 02:03:00 AM 41.8566 -88.9825 81° East  Level Estimated
Tue 02:04:00 AM 41.8761 -88.8208 81° East  Level Estimated
Tue 02:05:00 AM 41.8953 -88.6591 81° East  Level Estimated
Tue 02:06:00 AM 41.9143 -88.4972 81° East  Level Estimated
Tue 02:06:51 AM 41.5850 -88.5211 217° Southwest 378 435 10,900  Level Chicago Center
Tue 02:07:00 AM 41.9331 -88.3353 81° East  Level Estimated
Tue 02:07:51 AM 41.6444 -88.4047 56° Northeast 378 435 11,000  Level Chicago Center
Tue 02:08:00 AM 41.9516 -88.1732 81° East  Level Estimated
Tue 02:08:51 AM 41.7200 -88.3264 38° Northeast 343 395 10,800  Level Chicago Center
Tue 02:09:00 AM 41.9700 -88.0111 81° East  Level Estimated
Tue 02:09:51 AM 41.8025 -88.2875 19° North 315 362 9,300  Level Chicago Center
Tue 02:10:00 AM 41.9817 -87.9067 81° East  Level Estimated
Tue 02:10:52 AM 41.8811 -88.2500 20° North 301 346 7,800  Level Chicago Center
Tue 02:11:00 AM 41.9817 -87.9067 217° Southwest  Level Estimated
Tue 02:11:52 AM 41.9592 -88.2128 20° North 296 341 6,200  Level Chicago Center
Tue 02:12:00 AM 41.9817 -87.9067 217° Southwest  Level Estimated
Tue 02:12:52 AM 42.0392 -88.1928 11° North 299 344 4,000  Level Chicago Center
Tue 02:13:52 AM 42.1139 -88.1717 12° North 295 339 2,900 -750 Descending Chicago Center
Tue 02:14:52 AM 42.1119 -88.1014 92° East 232 267 2,500 -293 Descending Chicago Center
Tue 02:15:14 AM 42.1000 -88.0667 115° Southeast 192 221 2,500  Level Chicago TRACON

Login

Don't have an account? Register now (free) for customized features, flight alerts, and more!